APL Norway — A8NC4 — position and weather

sailwx.info

Track history (hours):
 
Tides and Currents Weather Stations Pressure Air Temp Water Temp Dewpoint Dewpoint Depression Visibility Wind Speed Wind Dir Waves Ship Positions

APL Norway

Last reported at 2016-Apr-12 13:12 UTC. Time now 2016-May-03 22:02 UTC.
Position N 34°44' E 140°17'.
Warning: this ship's position is 21 days out of date.

Length 295 m; draft 13.2 m.

Type: Cargo ship. MMSI: 636013456.

Date/timePositionNaut miles runAvg speedWind from/ knotsBaromVisibWave heightAir tempDewpointWater temp
2016-Apr-12 13:12N 34°44' E 140°17'1320.1
2016-Apr-12 12:33N 34°44' E 140°01'2120.5
2016-Apr-12 11:33N 34°38' E 139°37'88719.7
2016-Apr-10 14:30N 30°33' E 122°46'1818.3
2016-Apr-10 13:33N 30°32' E 122°26'1413.8
2016-Apr-10 12:32N 30°34' E 122°10'5 5.0
2016-Apr-10 11:34N 30°37' E 122°05'0 0.0
2016-Apr-10 07:15N 30°37' E 122°05'0 0.0
2016-Apr-10 03:27N 30°37' E 122°05'0 0.0
2016-Apr-10 02:30N 30°37' E 122°05'0 0.0
2016-Apr-10 01:33N 30°37' E 122°05'1 1.0
2016-Apr-10 00:33N 30°36' E 122°06'1110.9
2016-Apr-09 23:33N 30°33' E 122°18'8 6.2
2016-Apr-09 22:13N 30°32' E 122°28'5 7.6
2016-Apr-09 21:33N 30°31' E 122°33'71 7.0
2016-Apr-09 11:21N 29°22' E 122°54'7 9.0
2016-Apr-09 10:32N 29°16' E 122°49'34412.7
2016-Apr-08 07:33N 24°29' E 119°16'2120.0
2016-Apr-08 06:31N 24°16' E 118°58'2419.4
2016-Apr-08 05:19N 24°02' E 118°38'1519.7
2016-Apr-08 04:32N 23°52' E 118°25'11621.3
2016-Apr-07 23:05N 22°32' E 116°54'1120.1
2016-Apr-07 22:32N 22°27' E 116°43'12720.7
2016-Apr-07 16:26N 22°07' E 114°28'2412.6
2016-Apr-07 14:33N 22°19' E 114°06'1 1.5
2016-Apr-07 13:32N 22°20' E 114°08'0 0.1
2016-Apr-07 12:29N 22°20' E 114°08'0 0.0
2016-Apr-07 11:23N 22°20' E 114°08'0 0.0
2016-Apr-07 10:32N 22°20' E 114°08'0 0.0
2016-Apr-07 09:23N 22°20' E 114°08'0 0.0
2016-Apr-07 08:29N 22°20' E 114°08'0 0.0
2016-Apr-07 07:29N 22°20' E 114°08'0 0.0
2016-Apr-07 06:23N 22°20' E 114°08'0 0.1
2016-Apr-07 05:29N 22°20' E 114°08'0 0.1
2016-Apr-07 04:29N 22°20' E 114°08'0 0.0
2016-Apr-07 03:29N 22°20' E 114°08'0 0.0
2016-Apr-07 02:29N 22°20' E 114°08'0 0.0
2016-Apr-07 01:26N 22°20' E 114°08'0 0.0
2016-Apr-07 00:29N 22°20' E 114°08'1 1.2
2016-Apr-06 23:33N 22°19' E 114°07'9 8.3
2016-Apr-06 22:25N 22°21' E 113°57'8 0.3
2016-Apr-05 21:07N 22°20' E 114°05'4 6.5
2016-Apr-05 20:33N 22°17' E 114°06'11 8.4
2016-Apr-05 19:12N 22°09' E 114°15'6 8.8
2016-Apr-05 18:33N 22°08' E 114°21'31713.2
2016-Apr-04 18:33N 22°32' E 120°02'1413.7
2016-Apr-04 17:33N 22°33' E 120°17'0 0.0
2016-Apr-04 04:33N 22°33' E 120°17'4 3.8
2016-Apr-04 03:33N 22°32' E 120°13'1313.1
2016-Apr-04 02:33N 22°42' E 120°04'  
Track history (hours):
 
Tides and Currents Weather Stations Pressure Air Temp Water Temp Dewpoint Dewpoint Depression Visibility Wind Speed Wind Dir Waves Ship Positions

APL Norway

Last reported at 2016-Apr-12 13:12 UTC. Time now 2016-May-03 22:02 UTC.
Position N 34°44' E 140°17'.
Warning: this ship's position is 21 days out of date.

Length 295 m; draft 13.2 m.

Type: Cargo ship. MMSI: 636013456.

Date/timePositionNaut miles runAvg speedWind from/ knotsBaromVisibWave heightAir tempDewpointWater temp
2016-Apr-12 13:12N 34°44' E 140°17'1320.1
2016-Apr-12 12:33N 34°44' E 140°01'2120.5
2016-Apr-12 11:33N 34°38' E 139°37'88719.7
2016-Apr-10 14:30N 30°33' E 122°46'1818.3
2016-Apr-10 13:33N 30°32' E 122°26'1413.8
2016-Apr-10 12:32N 30°34' E 122°10'5 5.0
2016-Apr-10 11:34N 30°37' E 122°05'0 0.0
2016-Apr-10 07:15N 30°37' E 122°05'0 0.0
2016-Apr-10 03:27N 30°37' E 122°05'0 0.0
2016-Apr-10 02:30N 30°37' E 122°05'0 0.0
2016-Apr-10 01:33N 30°37' E 122°05'1 1.0
2016-Apr-10 00:33N 30°36' E 122°06'1110.9
2016-Apr-09 23:33N 30°33' E 122°18'8 6.2
2016-Apr-09 22:13N 30°32' E 122°28'5 7.6
2016-Apr-09 21:33N 30°31' E 122°33'71 7.0
2016-Apr-09 11:21N 29°22' E 122°54'7 9.0
2016-Apr-09 10:32N 29°16' E 122°49'34412.7
2016-Apr-08 07:33N 24°29' E 119°16'2120.0
2016-Apr-08 06:31N 24°16' E 118°58'2419.4
2016-Apr-08 05:19N 24°02' E 118°38'1519.7
2016-Apr-08 04:32N 23°52' E 118°25'11621.3
2016-Apr-07 23:05N 22°32' E 116°54'1120.1
2016-Apr-07 22:32N 22°27' E 116°43'12720.7
2016-Apr-07 16:26N 22°07' E 114°28'2412.6
2016-Apr-07 14:33N 22°19' E 114°06'1 1.5
2016-Apr-07 13:32N 22°20' E 114°08'0 0.1
2016-Apr-07 12:29N 22°20' E 114°08'0 0.0
2016-Apr-07 11:23N 22°20' E 114°08'0 0.0
2016-Apr-07 10:32N 22°20' E 114°08'0 0.0
2016-Apr-07 09:23N 22°20' E 114°08'0 0.0
2016-Apr-07 08:29N 22°20' E 114°08'0 0.0
2016-Apr-07 07:29N 22°20' E 114°08'0 0.0
2016-Apr-07 06:23N 22°20' E 114°08'0 0.1
2016-Apr-07 05:29N 22°20' E 114°08'0 0.1
2016-Apr-07 04:29N 22°20' E 114°08'0 0.0
2016-Apr-07 03:29N 22°20' E 114°08'0 0.0
2016-Apr-07 02:29N 22°20' E 114°08'0 0.0
2016-Apr-07 01:26N 22°20' E 114°08'0 0.0
2016-Apr-07 00:29N 22°20' E 114°08'1 1.2
2016-Apr-06 23:33N 22°19' E 114°07'9 8.3
2016-Apr-06 22:25N 22°21' E 113°57'8 0.3
2016-Apr-05 21:07N 22°20' E 114°05'4 6.5
2016-Apr-05 20:33N 22°17' E 114°06'11 8.4
2016-Apr-05 19:12N 22°09' E 114°15'6 8.8
2016-Apr-05 18:33N 22°08' E 114°21'31713.2
2016-Apr-04 18:33N 22°32' E 120°02'1413.7
2016-Apr-04 17:33N 22°33' E 120°17'0 0.0
2016-Apr-04 04:33N 22°33' E 120°17'4 3.8
2016-Apr-04 03:33N 22°32' E 120°13'1313.1
2016-Apr-04 02:33N 22°42' E 120°04'  

Dump ship's entire track history